createdAt,value
2018-07-02T00:32:15.700Z,0.00
2018-07-02T00:33:09.266Z,0.00
2018-07-02T00:34:54.438Z,0.00
2018-07-02T00:36:59.501Z,0.00
2018-07-02T00:38:29.471Z,0.00
2018-07-02T00:39:14.572Z,0.00
2018-07-02T00:50:23.075Z,0.00
2018-07-02T00:51:34.966Z,0.00
2018-07-02T00:53:25.456Z,0.00
2018-07-02T00:53:49.658Z,0.00
2018-07-02T01:27:04.160Z,0.00
2018-07-02T01:27:57.503Z,0.00
2018-07-02T01:29:00.669Z,0.00
2018-07-02T01:32:24.696Z,0.00
2018-07-02T01:33:14.954Z,0.00
2018-07-02T01:34:14.998Z,0.00
2018-07-02T01:36:40.250Z,0.00
2018-07-02T01:36:48.805Z,0.00
2018-07-02T01:37:48.764Z,0.00
2018-07-02T01:39:56.219Z,0.00
2018-07-02T01:44:50.363Z,0.00
2018-07-02T01:45:01.340Z,0.00
2018-07-02T01:53:22.452Z,0.05
2018-07-02T01:54:21.435Z,0.05
2018-07-02T01:55:30.376Z,0.05
2018-07-02T01:56:35.105Z,0.00
2018-07-02T01:58:27.249Z,0.00
2018-07-02T01:59:20.850Z,0.00
2018-07-02T02:01:33.174Z,0.00
2018-07-02T02:02:48.062Z,0.00
2018-07-02T02:03:10.861Z,0.00
2018-07-02T02:04:17.106Z,0.00
2018-07-02T02:05:20.652Z,0.00
2018-07-02T02:06:15.036Z,0.00
2018-07-02T02:07:12.655Z,0.00
2018-07-02T02:09:20.651Z,0.00
2018-07-02T02:10:18.406Z,0.05
2018-07-02T02:11:24.588Z,0.00
2018-07-02T02:12:22.670Z,0.05
2018-07-02T02:13:29.278Z,0.05
2018-07-02T02:14:20.869Z,0.05
2018-07-02T02:15:40.112Z,0.05
2018-07-02T02:16:22.481Z,0.05
2018-07-02T02:17:36.848Z,0.05
2018-07-02T02:18:24.168Z,0.05
2018-07-02T02:19:24.893Z,0.05
2018-07-02T02:20:28.417Z,0.05
2018-07-02T02:21:29.914Z,0.05
2018-07-02T02:22:34.201Z,0.05
2018-07-02T02:23:30.352Z,0.05
2018-07-02T02:24:30.024Z,0.05
2018-07-02T02:25:28.675Z,0.05
2018-07-02T02:26:34.849Z,0.05
2018-07-02T02:27:32.399Z,0.05
2018-07-02T02:30:22.533Z,0.05
2018-07-02T02:32:06.592Z,0.05
2018-07-02T02:32:56.079Z,0.09
2018-07-02T02:33:54.613Z,0.09
2018-07-02T02:50:15.016Z,0.86
2018-07-02T02:55:43.964Z,1.75
2018-07-02T02:56:38.975Z,2.07
2018-07-02T02:57:42.234Z,2.30
2018-07-02T02:58:44.826Z,2.70
2018-07-02T02:59:38.385Z,3.06
2018-07-02T03:00:40.177Z,3.46
2018-07-02T03:01:40.010Z,3.87
2018-07-02T03:02:40.798Z,4.45
2018-07-02T03:03:58.918Z,4.99
2018-07-02T03:04:51.167Z,5.58
2018-07-02T03:05:47.737Z,6.34
2018-07-02T03:06:43.503Z,7.11
2018-07-02T03:07:45.286Z,8.06
2018-07-02T03:08:46.062Z,8.95
2018-07-02T03:09:45.901Z,9.99
2018-07-02T03:10:46.605Z,11.20
2018-07-02T03:11:47.398Z,12.42
2018-07-02T03:12:48.179Z,13.77
2018-07-02T03:13:52.381Z,15.21
2018-07-02T04:09:22.800Z,214.56
2018-07-02T04:10:27.219Z,230.40
2018-07-02T04:11:12.483Z,247.68
2018-07-02T04:25:46.006Z,358.56
2018-07-02T04:26:08.714Z,352.80
2018-07-02T04:26:42.231Z,362.88
2018-07-02T04:27:40.010Z,368.64
2018-07-02T04:33:17.671Z,391.68
2018-07-02T04:34:23.409Z,397.44
2018-07-02T04:35:18.215Z,400.32
2018-07-02T04:36:18.989Z,406.08
2018-07-02T04:37:19.803Z,411.84
2018-07-02T04:38:33.555Z,414.72
2018-07-02T04:44:32.131Z,440.64
2018-07-02T04:45:24.782Z,443.52
2018-07-02T04:47:32.919Z,452.16
2018-07-02T04:55:22.777Z,480.96
2018-07-02T04:56:17.425Z,483.84
2018-07-02T04:57:55.996Z,489.60
2018-07-02T04:58:57.306Z,492.48
2018-07-02T04:59:54.478Z,495.36
2018-07-02T05:00:52.850Z,498.24
2018-07-02T05:01:57.053Z,504.00
2018-07-02T05:02:54.420Z,506.88
2018-07-02T05:04:04.624Z,512.64
2018-07-02T05:04:58.279Z,515.52
2018-07-02T05:06:34.605Z,518.40
2018-07-02T05:06:57.677Z,521.28
2018-07-02T05:08:06.837Z,527.04
2018-07-02T05:09:04.870Z,527.04
2018-07-02T05:09:59.739Z,532.80
2018-07-02T05:12:10.550Z,541.44
2018-07-02T05:13:11.349Z,544.32
2018-07-02T05:14:14.921Z,547.20
2018-07-02T05:15:12.687Z,555.84
2018-07-02T05:16:16.052Z,558.72
2018-07-02T05:17:13.295Z,561.60
2018-07-02T05:18:15.087Z,564.48
2018-07-02T05:19:18.014Z,567.36
2018-07-02T05:20:17.888Z,570.24
2018-07-02T05:21:16.472Z,576.00
2018-07-02T05:22:24.227Z,578.88
2018-07-02T05:23:20.314Z,581.76
2018-07-02T05:24:18.885Z,584.64
2018-07-02T05:25:20.664Z,590.40
2018-07-02T05:26:21.461Z,593.28
2018-07-02T05:27:22.288Z,593.28
2018-07-02T05:28:22.104Z,596.16
2018-07-02T05:29:25.898Z,599.04
2018-07-02T05:30:40.991Z,601.92
2018-07-02T05:32:02.022Z,610.56
2018-07-02T05:32:25.267Z,610.56
2018-07-02T06:07:30.657Z,5806.08
2018-07-02T06:08:31.429Z,8202.24
2018-07-02T06:09:32.242Z,8709.12
2018-07-02T06:10:31.965Z,9446.40
2018-07-02T06:11:33.773Z,10091.52
2018-07-02T06:12:34.549Z,10506.24
2018-07-02T06:25:03.764Z,1226.88
2018-07-02T06:26:39.766Z,1192.32
2018-07-02T06:27:40.571Z,1175.04
2018-07-02T06:28:59.925Z,1157.76
2018-07-02T06:30:04.938Z,1152.00
2018-07-02T06:31:05.287Z,1157.76
2018-07-02T06:32:05.789Z,1157.76
2018-07-02T07:09:47.106Z,1445.76
2018-07-02T07:10:46.905Z,1451.52
2018-07-02T07:20:39.155Z,1520.64
2018-07-02T07:21:32.040Z,1543.68
2018-07-02T07:22:32.891Z,1543.68
2018-07-02T07:23:33.765Z,1555.20
2018-07-02T07:24:34.476Z,1555.20
2018-07-02T07:25:36.409Z,1578.24
2018-07-02T07:26:43.807Z,1578.24
2018-07-02T07:27:37.177Z,1589.76
2018-07-02T07:28:38.992Z,1589.76
2018-07-02T07:29:38.899Z,1601.28
2018-07-02T07:30:39.633Z,1612.80
2018-07-02T07:31:41.415Z,1612.80
2018-07-02T07:32:42.369Z,1624.32
2018-07-02T07:33:43.108Z,1635.84
2018-07-02T07:34:43.901Z,1635.84
2018-07-02T07:35:44.714Z,1647.36
2018-07-02T07:36:45.481Z,1658.88
2018-07-02T07:37:46.253Z,1670.40
2018-07-02T07:38:47.025Z,1681.92
2018-07-02T07:39:47.794Z,1681.92
2018-07-02T07:40:48.596Z,1681.92
2018-07-02T07:41:49.369Z,1693.44
2018-07-02T07:42:50.142Z,1704.96
2018-07-02T07:43:50.930Z,1716.48
2018-07-02T07:44:51.730Z,1728.00
2018-07-02T07:45:51.501Z,1728.00
2018-07-02T07:46:53.272Z,1751.04
2018-07-02T07:47:54.042Z,1751.04
2018-07-02T07:48:54.816Z,1762.56
2018-07-02T07:49:55.594Z,1762.56
2018-07-02T07:50:56.385Z,1774.08
2018-07-02T07:51:57.159Z,1785.60
2018-07-02T07:52:57.927Z,1785.60
2018-07-02T07:53:58.701Z,1797.12
2018-07-02T07:54:59.478Z,1797.12
2018-07-02T07:56:00.278Z,1808.64
2018-07-02T07:57:01.038Z,1808.64
2018-07-02T07:58:01.810Z,1808.64
2018-07-02T07:59:02.582Z,1820.16
2018-07-02T08:00:03.356Z,1820.16
2018-07-02T08:01:04.157Z,1831.68
2018-07-02T08:02:04.926Z,1831.68
2018-07-02T08:03:05.697Z,1831.68
2018-07-02T08:04:06.467Z,1843.20
2018-07-02T08:05:07.297Z,1843.20
2018-07-02T08:06:07.039Z,1854.72
2018-07-02T08:07:08.813Z,1854.72
2018-07-02T08:08:09.583Z,1866.24
2018-07-02T08:09:10.359Z,1866.24
2018-07-02T08:10:11.144Z,1877.76
2018-07-02T08:11:11.931Z,1877.76
2018-07-02T08:12:12.704Z,1877.76
2018-07-02T08:13:13.477Z,1889.28
2018-07-02T08:14:14.249Z,1900.80
2018-07-02T08:15:15.025Z,1912.32
2018-07-02T08:16:15.825Z,1912.32
2018-07-02T08:17:16.590Z,1923.84
2018-07-02T08:18:20.159Z,1935.36
2018-07-02T08:19:18.039Z,1935.36
2018-07-02T08:20:17.706Z,1935.36
2018-07-02T08:21:19.498Z,1946.88
2018-07-02T08:22:20.273Z,1946.88
2018-07-02T08:23:21.043Z,1958.40
2018-07-02T08:24:21.816Z,1969.92
2018-07-02T08:25:22.591Z,1969.92
2018-07-02T08:26:23.389Z,1981.44
2018-07-02T08:27:24.226Z,1992.96
2018-07-02T08:28:23.933Z,1992.96
2018-07-02T08:29:25.707Z,2004.48
2018-07-02T08:30:26.480Z,2004.48
2018-07-02T08:31:27.276Z,2016.00
2018-07-02T08:32:28.053Z,2027.52
2018-07-02T08:33:28.825Z,2027.52
2018-07-02T08:34:29.594Z,2027.52
2018-07-02T08:35:30.368Z,2050.56
2018-07-02T08:36:31.174Z,2050.56
2018-07-02T08:37:31.948Z,2062.08
2018-07-02T08:38:32.714Z,2062.08
2018-07-02T08:39:33.486Z,2062.08
2018-07-02T08:40:34.261Z,2073.60
2018-07-02T08:41:35.062Z,2073.60
2018-07-02T08:42:34.836Z,2085.12
2018-07-02T08:43:36.605Z,2085.12
2018-07-02T08:44:37.372Z,2085.12
2018-07-02T08:45:38.144Z,2096.64
2018-07-02T08:46:38.961Z,2096.64
2018-07-02T08:47:39.712Z,2108.16
2018-07-02T08:48:40.485Z,2108.16
2018-07-02T08:49:41.261Z,2119.68
2018-07-02T08:50:44.455Z,2119.68
2018-07-02T08:51:44.716Z,2119.68
2018-07-02T08:52:43.550Z,2131.20
2018-07-02T08:53:43.254Z,2142.72
2018-07-02T08:54:47.195Z,2142.72
2018-07-02T08:55:44.833Z,2142.72
2018-07-02T08:56:46.608Z,2154.24
2018-07-02T08:57:49.562Z,2154.24
2018-07-02T08:58:47.173Z,2154.24
2018-07-02T09:00:02.515Z,2154.24
2018-07-02T09:00:48.759Z,2165.76
2018-07-02T09:01:50.524Z,2165.76
2018-07-02T09:02:51.298Z,2165.76
2018-07-02T09:03:52.081Z,2177.28
2018-07-02T09:04:52.870Z,2177.28
2018-07-02T09:08:41.380Z,2188.80
2018-07-02T09:09:39.156Z,2200.32
2018-07-02T09:10:39.925Z,2200.32
2018-07-02T09:11:40.692Z,2211.84
2018-07-02T09:12:41.490Z,2211.84
2018-07-02T09:13:44.428Z,2234.88
2018-07-02T09:15:42.600Z,2234.88
2018-07-02T09:19:00.300Z,2246.40
2018-07-02T09:19:56.505Z,2246.40
2018-07-02T09:20:54.420Z,2257.92
2018-07-02T09:21:56.192Z,2257.92
2018-07-02T09:22:56.983Z,2257.92
2018-07-02T09:24:00.183Z,2269.44
2018-07-02T09:24:57.544Z,2269.44
2018-07-02T09:25:59.323Z,2269.44
2018-07-02T09:27:06.097Z,2269.44
2018-07-02T09:28:00.881Z,2280.96
2018-07-02T09:29:01.663Z,2280.96
2018-07-02T09:30:02.492Z,2292.48
2018-07-02T09:31:04.411Z,2292.48
2018-07-02T09:32:03.009Z,2304.00
2018-07-02T09:33:04.783Z,2304.00
2018-07-02T09:34:05.593Z,2292.48
2018-07-02T09:35:06.358Z,2304.00
2018-07-02T09:36:13.164Z,2304.00
2018-07-02T09:37:26.043Z,2304.00
2018-07-02T09:38:07.748Z,2315.52
2018-07-02T09:39:09.588Z,2315.52
2018-07-02T09:40:53.540Z,2315.52
2018-07-02T09:41:56.414Z,2315.52
2018-07-02T09:42:59.790Z,2327.04
2018-07-02T09:43:43.154Z,2327.04
2018-07-02T09:44:52.428Z,2338.56
2018-07-02T09:45:50.082Z,2338.56
2018-07-02T09:47:36.520Z,2338.56
2018-07-02T09:47:46.223Z,2338.56
2018-07-02T09:50:29.118Z,59351.04
2018-07-02T12:14:33.665Z,42946.56
2018-07-02T12:16:05.808Z,43315.20
2018-07-02T12:16:36.396Z,43868.16
2018-07-02T12:17:38.748Z,43315.20
2018-07-02T12:47:12.282Z,34836.48
2018-07-02T12:48:23.397Z,33361.92
